Snow/Ice From: 17-12-2018 09:00 Until: 17:00 warning for: Snow/Ice Level: Yellow info button
suomi:
Liikennesää: Ajokeli muuttuu huonoksi päivällä lumisateen vuoksi.

svenska:
Trafikvädret: Väglaget blir dåligt på dagen p.g.a. snöfall.

english:
Traffic weather warning: Bad road conditions are expected at noon and in the afternoon because of snow. 


Thunder radar more information blitzortung!


Löydät sääaseman tiedot myös:

European Weather Network

Finland Weather Exchange

Weather Underground

AWEKAS



Weather Underground säähistoriasivu

Päivittäin yhteenveto Lokakuu 14, 2017 Yksiköt:  Englantilaiset    Metriset   Molemmat
« Edellinen Päivä
Seuraava Päivä »
Päivittäin Viikoittain Kuukausittain Vuosittain Mukautettu
  Korkea: Matala: Keskiarvo:
Lämpötila: TemperatureC °F 0.0 °F 4.1 °F
Kastepiste: DewpointC °F -0.5 °F 3.8 °F
Kosteus: Humidity % 96 % 97 %
Tuulen nopeus: WindSpeedKMH mph 0.0 mph 0 mph
Tuulenpuuska: WindSpeedGustKMH mph - -
Tuuli:- - North
Ilmanpaine: PressurehPa in 1002.9 in -
Sade: 0.0 in    
Historical Graphs
 
 
Taulukkotiedot Lokakuu 14, 2017
Aika Lämpötila Kastepiste Ilmanpaine Tuuli Tuulen nopeus Tuulenpuuska Kosteus Sademäärä (tunneittain)
TemperatureC °F DewpointC °F PressurehPa in Calm     Humidity % HourlyPrecipMM in
00:00 0.3 °F -0.2 °F 1012.8 in Calm     96 % 0.0 in
00:15 0.4 °F -0.1 °F 1012.8 in Calm     96 % 0.0 in
00:30 0.4 °F -0.2 °F 1012.8 in Calm     96 % 0.0 in
00:45 0.4 °F -0.2 °F 1012.8 in Calm     96 % 0.0 in
01:00 0.4 °F 0.0 °F 1012.4 in Calm     97 % 0.0 in
01:15 0.4 °F 0.0 °F 1012.1 in Calm     97 % 0.0 in
01:30 0.3 °F -0.1 °F 1012.1 in Calm     97 % 0.0 in
01:45 0.1 °F -0.5 °F 1012.1 in Calm     96 % 0.0 in
02:00 0.0 °F -0.4 °F 1011.7 in Calm     97 % 0.0 in
02:15 0.1 °F -0.4 °F 1011.7 in Calm     97 % 0.0 in
02:30 0.2 °F -0.3 °F 1011.7 in Calm     97 % 0.0 in
02:45 0.3 °F -0.1 °F 1011.4 in Calm     97 % 0.0 in
03:00 0.4 °F 0.0 °F 1011.1 in Calm     97 % 0.0 in
03:15 0.5 °F 0.1 °F 1011.1 in Calm     97 % 0.0 in
03:30 0.5 °F 0.1 °F 1011.1 in Calm     97 % 0.0 in
03:45 0.8 °F 0.4 °F 1010.7 in Calm     97 % 0.0 in
04:00 1.1 °F 0.6 °F 1010.7 in Calm     97 % 0.0 in
04:15 1.2 °F 0.7 °F 1010.7 in Calm     97 % 0.0 in
04:30 1.2 °F 0.9 °F 1010.7 in Calm     98 % 0.0 in
04:45 1.4 °F 1.2 °F 1010.4 in Calm     98 % 0.0 in
05:00 1.6 °F 1.3 °F 1010.4 in Calm     98 % 0.0 in
05:15 1.7 °F 1.4 °F 1010.4 in Calm     98 % 0.0 in
05:30 1.8 °F 1.6 °F 1010.0 in Calm     98 % 0.0 in
05:45 2.0 °F 1.7 °F 1010.0 in Calm     98 % 0.0 in
06:00 2.1 °F 1.8 °F 1009.7 in Calm     98 % 0.0 in
06:15 2.2 °F 1.9 °F 1009.7 in Calm     98 % 0.0 in
06:30 2.3 °F 2.0 °F 1009.7 in Calm     98 % 0.0 in
06:45 2.4 °F 2.2 °F 1009.7 in Calm     98 % 0.0 in
07:00 2.6 °F 2.3 °F 1009.7 in Calm     98 % 0.0 in
07:15 2.8 °F 2.5 °F 1009.4 in Calm     98 % 0.0 in
07:30 3.3 °F 3.0 °F 1009.7 in Calm     98 % 0.0 in
07:45 3.4 °F 3.2 °F 1009.4 in Calm     98 % 0.0 in
08:00 3.6 °F 3.3 °F 1009.0 in Calm     98 % 0.0 in
08:15 3.8 °F 3.5 °F 1009.0 in Calm     98 % 0.0 in
08:30 3.9 °F 3.6 °F 1008.7 in Calm     98 % 0.0 in
08:45 3.9 °F 3.7 °F 1008.7 in Calm     98 % 0.0 in
09:00 4.1 °F 3.8 °F 1008.4 in Calm     98 % 0.0 in
09:15 4.2 °F 3.9 °F 1008.4 in Calm     98 % 0.0 in
09:30 4.2 °F 3.9 °F 1008.0 in Calm     98 % 0.0 in
09:45 4.3 °F 4.0 °F 1008.0 in Calm     98 % 0.0 in
10:00 4.4 °F 4.1 °F 1007.7 in Calm     98 % 0.0 in
10:15 4.6 °F 4.3 °F 1007.7 in Calm     98 % 0.0 in
10:30 4.8 °F 4.5 °F 1007.7 in Calm     98 % 0.0 in
10:45 4.9 °F 4.6 °F 1007.3 in Calm     98 % 0.0 in
11:00 5.1 °F 4.8 °F 1007.0 in Calm     98 % 0.0 in
11:15 5.2 °F 4.9 °F 1007.0 in Calm     98 % 0.0 in
11:30 5.3 °F 5.0 °F 1006.7 in Calm     98 % 0.0 in
11:45 5.3 °F 5.0 °F 1006.3 in Calm     98 % 0.0 in
12:00 5.5 °F 5.2 °F 1006.3 in Calm     98 % 0.0 in
12:15 5.6 °F 5.3 °F 1006.3 in Calm     98 % 0.0 in
12:30 5.7 °F 5.4 °F 1006.0 in Calm     98 % 0.0 in
12:45 5.7 °F 5.4 °F 1005.6 in Calm     98 % 0.0 in
13:00 5.8 °F 5.5 °F 1005.6 in Calm     98 % 0.0 in
13:15 5.8 °F 5.5 °F 1005.3 in Calm     98 % 0.0 in
13:30 5.9 °F 5.6 °F 1005.3 in Calm     98 % 0.0 in
13:45 5.9 °F 5.7 °F 1005.0 in Calm     98 % 0.0 in
14:00 6.0 °F 5.7 °F 1005.0 in Calm     98 % 0.0 in
14:15 6.1 °F 5.8 °F 1005.0 in Calm     98 % 0.0 in
14:30 6.1 °F 5.8 °F 1004.6 in Calm     98 % 0.0 in
14:45 6.1 °F 5.8 °F 1004.3 in Calm     98 % 0.0 in
15:00 6.2 °F 5.9 °F 1004.3 in Calm     98 % 0.0 in
15:15 6.2 °F 5.9 °F 1003.9 in Calm     98 % 0.0 in
15:30 6.1 °F 5.8 °F 1003.9 in Calm     98 % 0.0 in
15:45 6.2 °F 5.9 °F 1003.9 in Calm     98 % 0.0 in
16:00 6.2 °F 5.9 °F 1003.6 in Calm     98 % 0.0 in
16:15 6.2 °F 5.9 °F 1003.6 in Calm     98 % 0.0 in
16:30 6.1 °F 5.8 °F 1003.6 in Calm     98 % 0.0 in
16:45 6.2 °F 5.9 °F 1003.6 in Calm     98 % 0.0 in
17:00 6.2 °F 5.9 °F 1003.6 in Calm     98 % 0.0 in
17:15 6.2 °F 5.9 °F 1003.3 in Calm     98 % 0.0 in
17:30 6.2 °F 5.9 °F 1003.6 in Calm     98 % 0.0 in
17:45 6.2 °F 5.9 °F 1003.6 in Calm     98 % 0.0 in
18:00 6.2 °F 5.9 °F 1003.3 in Calm     98 % 0.0 in
18:15 6.2 °F 5.9 °F 1002.9 in Calm     98 % 0.0 in
18:30 6.1 °F 5.8 °F 1003.3 in Calm     98 % 0.0 in
18:45 6.1 °F 5.8 °F 1003.3 in Calm     98 % 0.0 in
19:00 6.1 °F 5.8 °F 1003.3 in Calm     98 % 0.0 in
19:15 6.1 °F 5.8 °F 1003.3 in Calm     98 % 0.0 in
19:30 6.0 °F 5.7 °F 1003.3 in Calm     98 % 0.0 in
19:45 5.9 °F 5.7 °F 1003.3 in Calm     98 % 0.0 in
20:00 5.9 °F 5.7 °F 1003.3 in Calm     98 % 0.0 in
20:15 5.9 °F 5.7 °F 1002.9 in Calm     98 % 0.0 in
20:30 5.9 °F 5.7 °F 1003.3 in Calm     98 % 0.0 in
20:45 5.9 °F 5.7 °F 1003.3 in Calm     98 % 0.0 in
21:00 5.9 °F 5.7 °F 1003.6 in Calm     98 % 0.0 in
21:15 5.9 °F 5.6 °F 1003.6 in Calm     98 % 0.0 in
21:30 5.9 °F 5.6 °F 1003.6 in Calm     98 % 0.0 in
21:45 5.8 °F 5.5 °F 1003.9 in Calm     98 % 0.0 in
22:00 5.8 °F 5.5 °F 1003.6 in Calm     98 % 0.0 in
22:15 5.9 °F 5.6 °F 1003.6 in Calm     98 % 0.0 in
22:30 5.9 °F 5.7 °F 1003.6 in Calm     98 % 0.0 in
22:45 6.0 °F 5.7 °F 1003.6 in Calm     98 % 0.0 in
23:00 6.1 °F 5.8 °F 1003.9 in Calm     98 % 0.0 in
23:15 6.1 °F 5.8 °F 1003.9 in Calm     98 % 0.0 in
23:30 6.1 °F 5.8 °F 1003.9 in Calm     98 % 0.0 in
Esan sääasema
Terveisin Weather Underground - 2.75 mb

Alkuperäinen skripti  Jim McMurry - jmcmurry@mwt.net Sovitettu myös templatelle  Wim van der Kuil - Leuven-Template.eu

Laitteet joita käytämme:

Sääasema
Davis VP2

Sääasemaohjelma
Cumulus

Sääaseman tietokone
Asus EeePC

Palveluntarjoaja
Suncomet

Davis VP2

Cumulus

Asus EeePC

Suncomet